This is the latest recevied weather packets stored in our database for station/object DL3GCR-10. If no packets are shown the sender has not sent any weather packets the latest 10 day(s).
| Time | Temp. | Humidity | Pressure | Rain* | Wind** | Luminosity | Snow |
|---|---|---|---|---|---|---|---|
| 1777701127 | 12.22° C | 56% | 1024.1 hPa | - | - | - | - |
| 1777700227 | 11.67° C | 56% | 1024.1 hPa | - | - | - | - |
| 1777699327 | 11.11° C | 56% | 1024 hPa | - | - | - | - |
| 1777698427 | 11.11° C | 56% | 1023.9 hPa | - | - | - | - |
| 1777697526 | 11.11° C | 56% | 1023.8 hPa | - | - | - | - |
| 1777696626 | 10.56° C | 54% | 1023.7 hPa | - | - | - | - |
| 1777695734 | 10.56° C | 55% | 1023.7 hPa | - | - | - | - |
| 1777694834 | 10.56° C | 53% | 1023.7 hPa | - | - | - | - |
| 1777693933 | 11.11° C | 52% | 1023.7 hPa | - | - | - | - |
| 1777693033 | 11.67° C | 49% | 1023.7 hPa | - | - | - | - |
| 1777692133 | 11.67° C | 49% | 1023.7 hPa | - | - | - | - |
| 1777691233 | 12.22° C | 48% | 1023.6 hPa | - | - | - | - |
| 1777690333 | 12.78° C | 47% | 1023.6 hPa | - | - | - | - |
| 1777689433 | 12.78° C | 47% | 1023.6 hPa | - | - | - | - |
| 1777673233 | 17.78° C | 29% | 1024 hPa | - | - | - | - |
| 1777672333 | 17.78° C | 29% | 1023.9 hPa | - | - | - | - |
| 1777671433 | 17.78° C | 29% | 1023.8 hPa | - | - | - | - |
| 1777670533 | 17.22° C | 31% | 1023.9 hPa | - | - | - | - |
| 1777669633 | 17.22° C | 31% | 1023.8 hPa | - | - | - | - |
| 1777667832 | 17.78° C | 30% | 1023.9 hPa | - | - | - | - |
| 1777666932 | 17.78° C | 30% | 1023.9 hPa | - | - | - | - |
| 1777666032 | 17.78° C | 30% | 1023.9 hPa | - | - | - | - |
| 1777665132 | 18.33° C | 29% | 1023.7 hPa | - | - | - | - |
| 1777664231 | 18.89° C | 27% | 1023.6 hPa | - | - | - | - |
| 1777662431 | 19.44° C | 29% | 1023.4 hPa | - | - | - | - |
* Rain since midnight (hover to see other rain measurements)
** Current wind speed in m/s (hover to see current wind gust speed)